createdAt,value
2019-02-20T00:04:55.766Z,99981.99
2019-02-20T00:10:01.055Z,99977.92
2019-02-20T00:15:06.728Z,99980.63
2019-02-20T00:20:12.017Z,99981.99
2019-02-20T00:25:17.349Z,99981.50
2019-02-20T00:30:22.691Z,99984.62
2019-02-20T00:35:28.116Z,99984.73
2019-02-20T00:40:33.391Z,99989.62
2019-02-20T00:45:51.351Z,99986.79
2019-02-20T00:51:04.766Z,99989.81
2019-02-20T00:56:10.137Z,99992.80
2019-02-20T01:01:15.582Z,99995.83
2019-02-20T01:06:20.951Z,100003.58
2019-02-20T01:11:26.637Z,99997.84
2019-02-20T01:16:31.962Z,99985.05
2019-02-20T01:21:37.268Z,99974.12
2019-02-20T01:26:42.678Z,99977.31
2019-02-20T01:31:47.963Z,99982.23
2019-02-20T01:36:53.366Z,99987.97
2019-02-20T01:41:58.953Z,99978.28
2019-02-20T01:47:04.242Z,99980.42
2019-02-20T01:52:09.865Z,99978.08
2019-02-20T01:57:15.277Z,99970.02
2019-02-20T02:02:20.674Z,99964.20
2019-02-20T02:07:26.037Z,99951.81
2019-02-20T02:12:31.733Z,99958.83
2019-02-20T02:17:37.051Z,99958.79
2019-02-20T02:22:42.417Z,99957.09
2019-02-20T02:27:47.792Z,99960.16
2019-02-20T02:32:53.274Z,99953.39
2019-02-20T02:37:58.590Z,99938.38
2019-02-20T02:43:04.013Z,99939.30
2019-02-20T02:48:09.327Z,99936.69
2019-02-20T02:53:14.671Z,99930.03
2019-02-20T02:58:19.999Z,99915.42
2019-02-20T03:03:25.523Z,99910.58
2019-02-20T03:08:30.801Z,99911.91
2019-02-20T03:13:36.107Z,99905.21
2019-02-20T03:18:41.489Z,99908.28
2019-02-20T03:23:46.856Z,99895.89
2019-02-20T03:28:52.121Z,99903.84
2019-02-20T03:33:57.494Z,99891.69
2019-02-20T03:39:03.536Z,99896.56
2019-02-20T03:44:08.837Z,99884.58
2019-02-20T03:49:14.116Z,99878.33
2019-02-20T03:54:19.462Z,99872.16
2019-02-20T03:59:24.786Z,99870.83
2019-02-20T04:04:30.117Z,99874.78
2019-02-20T04:09:35.412Z,99866.84
2019-02-20T04:14:40.971Z,99880.06
2019-02-20T04:19:46.417Z,99870.83
2019-02-20T04:24:51.682Z,99864.17
2019-02-20T04:29:56.991Z,99880.11
2019-02-20T04:35:02.377Z,99881.65
2019-02-20T04:40:07.848Z,99886.62
2019-02-20T04:45:13.204Z,99885.77
2019-02-20T04:50:18.491Z,99889.68
2019-02-20T04:55:23.847Z,99889.23
2019-02-20T05:00:29.207Z,99891.42
2019-02-20T05:05:34.635Z,99886.09
2019-02-20T05:10:40.094Z,99889.59
2019-02-20T05:15:45.520Z,99890.97
2019-02-20T05:20:50.848Z,99893.63
2019-02-20T05:25:56.167Z,99899.97
2019-02-20T05:31:01.414Z,99888.44
2019-02-20T05:36:06.778Z,99903.61
2019-02-20T05:41:12.121Z,99895.94
2019-02-20T05:46:17.495Z,99906.02
2019-02-20T05:51:22.861Z,99905.89
2019-02-20T05:56:28.275Z,99912.25
2019-02-20T06:01:33.487Z,99896.75
2019-02-20T06:06:38.884Z,99901.37
2019-02-20T06:11:44.296Z,99904.44
2019-02-20T06:16:49.756Z,99906.08
2019-02-20T06:21:55.010Z,99900.70
2019-02-20T06:27:00.367Z,99897.69
2019-02-20T06:32:05.606Z,99896.31
2019-02-20T06:37:11.028Z,99894.53
2019-02-20T06:42:16.344Z,99905.19
2019-02-20T06:47:21.751Z,99903.69
2019-02-20T06:52:27.166Z,99894.72
2019-02-20T06:57:32.694Z,99897.73
2019-02-20T07:02:38.005Z,99884.38
2019-02-20T07:08:02.438Z,99895.08
2019-02-20T07:13:22.286Z,99901.73
2019-02-20T07:18:34.470Z,99905.42
2019-02-20T07:23:49.362Z,99902.22
2019-02-20T07:29:18.156Z,99910.00
2019-02-20T07:34:23.451Z,99911.73
2019-02-20T07:39:28.872Z,99919.23
2019-02-20T07:44:34.262Z,99914.66
2019-02-20T07:49:39.656Z,99914.70
2019-02-20T07:54:45.132Z,99930.55
2019-02-20T07:59:50.658Z,99937.17
2019-02-20T08:04:56.018Z,99946.81
2019-02-20T08:10:01.341Z,99951.92
2019-02-20T08:15:07.511Z,99949.88
2019-02-20T08:20:13.196Z,99954.89
2019-02-20T08:25:22.865Z,99957.59
2019-02-20T08:30:25.793Z,99961.02
2019-02-20T08:35:31.220Z,99975.42
2019-02-20T08:40:36.727Z,99973.19
2019-02-20T08:45:42.049Z,99984.99
2019-02-20T08:50:47.447Z,99988.63
2019-02-20T08:55:52.637Z,99990.84
2019-02-20T09:00:59.139Z,100002.47
2019-02-20T09:06:04.517Z,100009.81
2019-02-20T09:11:09.810Z,100006.98
2019-02-20T09:16:15.241Z,100010.45
2019-02-20T09:21:20.709Z,100006.64
2019-02-20T09:26:26.061Z,100012.09
2019-02-20T09:31:32.796Z,100017.88
2019-02-20T09:36:38.148Z,100022.71
2019-02-20T09:41:45.498Z,100027.52
2019-02-20T09:46:50.843Z,100024.41
2019-02-20T09:51:56.237Z,100026.09
2019-02-20T09:57:01.543Z,100030.95
2019-02-20T10:02:06.887Z,100044.91
2019-02-20T10:07:13.450Z,100034.45
2019-02-20T10:12:18.826Z,100045.75
2019-02-20T10:17:24.113Z,100043.63
2019-02-20T10:22:29.460Z,100060.47
2019-02-20T10:27:35.155Z,100059.45
2019-02-20T10:32:40.646Z,100057.09
2019-02-20T10:37:47.935Z,100073.77
2019-02-20T10:42:53.334Z,100065.63
2019-02-20T10:47:58.791Z,100073.19
2019-02-20T10:53:04.413Z,100073.72
2019-02-20T10:58:09.874Z,100080.56
2019-02-20T11:03:15.374Z,100082.11
2019-02-20T11:08:20.835Z,100079.22
2019-02-20T11:13:26.550Z,100093.19
2019-02-20T11:18:32.090Z,100098.34
2019-02-20T11:23:37.812Z,100094.83
2019-02-20T11:28:43.374Z,100090.78
2019-02-20T11:33:48.910Z,100099.81
2019-02-20T11:38:54.535Z,100102.74
2019-02-20T11:44:00.194Z,100101.14
2019-02-20T11:49:05.807Z,100107.91
2019-02-20T11:54:11.614Z,100098.48
2019-02-20T11:59:17.014Z,100101.10
2019-02-20T12:04:22.518Z,100105.72
2019-02-20T12:09:30.951Z,100108.16
2019-02-20T12:14:36.891Z,100114.34
2019-02-20T12:19:42.335Z,100113.66
2019-02-20T12:24:47.969Z,100109.13
2019-02-20T12:29:54.052Z,100119.55
2019-02-20T12:34:59.753Z,100119.26
2019-02-20T12:40:05.734Z,100115.70
2019-02-20T12:45:11.458Z,100126.19
2019-02-20T12:50:18.206Z,100127.28
2019-02-20T12:55:23.635Z,100120.75
2019-02-20T13:00:32.393Z,100124.14
2019-02-20T13:05:38.066Z,100115.75
2019-02-20T13:10:43.955Z,100109.97
2019-02-20T13:15:49.494Z,100115.95
2019-02-20T13:20:54.855Z,100122.33
2019-02-20T13:26:00.414Z,100124.84
2019-02-20T13:31:05.821Z,100121.20
2019-02-20T13:36:11.718Z,100123.42
2019-02-20T13:41:16.994Z,100110.43
2019-02-20T13:46:22.581Z,100105.80
2019-02-20T13:51:28.037Z,100102.05
2019-02-20T13:56:33.695Z,100113.74
2019-02-20T14:01:39.366Z,100098.02
2019-02-20T14:06:44.975Z,100104.25
2019-02-20T14:11:50.571Z,100112.86
2019-02-20T14:16:55.955Z,100109.26
2019-02-20T14:22:05.657Z,100106.61
2019-02-20T14:27:11.352Z,100106.98
2019-02-20T14:32:16.915Z,100115.45
2019-02-20T14:37:22.235Z,100111.75
2019-02-20T14:42:27.774Z,100091.63
2019-02-20T14:47:33.675Z,100099.78
2019-02-20T14:52:39.198Z,100094.97
2019-02-20T14:57:44.695Z,100092.96
2019-02-20T15:02:50.075Z,100105.52
2019-02-20T15:07:55.975Z,100108.88
2019-02-20T15:13:01.563Z,100107.31
2019-02-20T15:18:07.250Z,100111.23
2019-02-20T15:23:12.695Z,100109.80
2019-02-20T15:28:19.786Z,100112.56
2019-02-20T15:33:25.274Z,100115.72
2019-02-20T15:38:33.934Z,100119.52
2019-02-20T15:43:39.642Z,100120.40
2019-02-20T15:48:45.289Z,100117.02
2019-02-20T15:53:50.894Z,100120.59
2019-02-20T15:58:56.635Z,100113.91
2019-02-20T16:04:02.169Z,100107.67
2019-02-20T16:09:08.294Z,100109.20
2019-02-20T16:14:13.910Z,100115.92
2019-02-20T16:19:19.510Z,100110.18
2019-02-20T16:24:25.134Z,100114.54
2019-02-20T16:29:30.570Z,100118.23
2019-02-20T16:34:36.241Z,100120.00
2019-02-20T16:39:41.710Z,100122.95
2019-02-20T16:44:47.682Z,100122.14
2019-02-20T16:49:53.232Z,100120.00
2019-02-20T16:55:00.167Z,100127.70
2019-02-20T17:00:06.250Z,100117.02
2019-02-20T17:05:13.536Z,100119.73
2019-02-20T17:10:19.511Z,100118.90
2019-02-20T17:15:28.010Z,100117.11
2019-02-20T17:20:34.578Z,100116.45
2019-02-20T17:25:40.235Z,100131.08
2019-02-20T17:30:46.128Z,100134.72
2019-02-20T17:35:51.775Z,100150.73
2019-02-20T17:40:57.542Z,100159.13
2019-02-20T17:46:02.915Z,100175.59
2019-02-20T17:51:08.532Z,100174.61
2019-02-20T17:56:13.998Z,100163.54
2019-02-20T18:01:19.518Z,100183.42
2019-02-20T18:06:24.994Z,100181.64
2019-02-20T18:11:30.555Z,100199.42
2019-02-20T18:16:35.994Z,100201.25
2019-02-20T18:21:41.582Z,100210.99
2019-02-20T18:26:46.875Z,100226.55
2019-02-20T18:31:52.335Z,100227.89
2019-02-20T18:36:57.841Z,100220.49
2019-02-20T18:42:03.436Z,100220.49
2019-02-20T18:47:08.798Z,100223.93
2019-02-20T18:52:14.327Z,100227.93
2019-02-20T18:57:19.816Z,100225.66
2019-02-20T19:02:25.196Z,100219.44
2019-02-20T19:07:30.655Z,100221.26
2019-02-20T19:12:47.306Z,100223.84
2019-02-20T19:18:09.861Z,100226.59
2019-02-20T19:23:29.383Z,100238.52
2019-02-20T19:28:44.534Z,100250.89
2019-02-20T19:34:12.659Z,100250.44
2019-02-20T19:39:30.488Z,100256.63
2019-02-20T19:44:44.543Z,100241.14
2019-02-20T19:50:07.494Z,100256.63
2019-02-20T19:55:24.338Z,100250.44
2019-02-20T20:00:42.457Z,100253.52
2019-02-20T20:06:01.397Z,100242.36
2019-02-20T20:11:25.299Z,100247.70
2019-02-20T20:16:43.336Z,100253.03
2019-02-20T20:22:09.016Z,100239.69
2019-02-20T20:27:30.803Z,100246.44
2019-02-20T20:32:56.146Z,100257.47
2019-02-20T20:38:15.517Z,100275.67
2019-02-20T20:43:42.534Z,100282.34
2019-02-20T20:48:58.394Z,100292.89
2019-02-20T20:54:29.915Z,100289.86
2019-02-20T20:59:48.373Z,100300.94
2019-02-20T21:05:20.474Z,100304.41
2019-02-20T21:10:46.297Z,100315.94
2019-02-20T21:16:00.470Z,100326.98
2019-02-20T21:21:18.034Z,100319.90
2019-02-20T21:26:43.692Z,100318.56
2019-02-20T21:31:56.582Z,100334.90
2019-02-20T21:37:15.827Z,100329.20
2019-02-20T21:42:33.274Z,100343.07
2019-02-20T21:47:52.814Z,100333.73
2019-02-20T21:53:31.182Z,100347.12
2019-02-20T21:58:46.794Z,100353.86
2019-02-20T22:04:09.425Z,100357.79
2019-02-20T22:09:31.470Z,100347.55
2019-02-20T22:14:54.293Z,100365.67
2019-02-20T22:20:19.929Z,100353.22
2019-02-20T22:25:38.390Z,100353.66
2019-02-20T22:30:54.178Z,100355.81
2019-02-20T22:36:17.296Z,100360.25
2019-02-20T22:41:35.554Z,100353.62
2019-02-20T22:46:58.432Z,100355.77
2019-02-20T22:52:18.162Z,100352.66
2019-02-20T22:57:45.304Z,100347.77
2019-02-20T23:03:01.515Z,100357.06
2019-02-20T23:08:16.354Z,100362.36
2019-02-20T23:13:33.657Z,100353.06
2019-02-20T23:18:41.051Z,100346.87
2019-02-20T23:23:46.494Z,100348.65
2019-02-20T23:28:51.874Z,100351.31
2019-02-20T23:33:57.513Z,100358.80
2019-02-20T23:39:03.034Z,100358.36
2019-02-20T23:44:08.515Z,100359.69
2019-02-20T23:49:13.917Z,100361.47
2019-02-20T23:54:19.325Z,100364.98
2019-02-20T23:59:24.685Z,100361.43
